North Collins, New York
Current Conditions -  °F | °C
As of 6:22 PM on Saturday 25 Oct 2014 (Local Time) from KDKK Reporting Station
Haze Haze  
Wind Chill: 57°   Ceiling: 2900
Heat Index: 57°   Visibility: 6mi
Dew Point: 52°   Wind: 16mph
Humidity: 83%   Direction: 240°WSW
Pressure: 29.68"   Gusts: 23mph
Location:  42.6°N, 78.94°W
Report Text: KDKK 252222Z AUTO 24014G20KT 6SM HZ BKN029 OVC042 14/11 A2968 RMK AO2 PK WND 23028/2154 T01390111
Loading
Personal Weather Stations






























Interactive Weather Map
Tropical Storm Tracking
New forecast layout! Learn more

10-Day Weather Forecast

Advertisements
Track Severe Weather on mobile